Poole, Louisiana
Current Conditions -  °F | °C
As of 5:53 AM on Monday 22 Dec 2014 (Local Time) from KDTN Reporting Station
Overcast Overcast  
Wind Chill: 50°   Ceiling: 600
Heat Index: 50°   Visibility: 8mi
Dew Point: 47°   Wind: 10mph
Humidity: 89%   Direction: 160°SSE
Pressure: 29.74"   Gusts: NA
Location:  32.3415°N, 93.4966°W
Report Text: KDTN 221153Z AUTO 16009KT 8SM OVC006 10/08 A2974 RMK AO2 SLP069 T01000083 10100 20089 56017 $
Loading
Personal Weather Stations






























Interactive Weather Map New forecast layout! Learn more

10-Day Weather Forecast

Advertisements
Track Severe Weather on mobile